createdAt,value
2019-05-21T00:01:37.924Z,48.37
2019-05-21T00:04:05.492Z,50.33
2019-05-21T00:06:33.033Z,49.60
2019-05-21T00:09:00.644Z,51.80
2019-05-21T00:11:28.144Z,50.83
2019-05-21T00:13:55.653Z,43.30
2019-05-21T00:16:23.172Z,46.77
2019-05-21T00:18:50.696Z,47.70
2019-05-21T00:21:18.197Z,47.40
2019-05-21T00:23:45.628Z,44.97
2019-05-21T00:26:13.088Z,39.27
2019-05-21T00:29:16.688Z,38.37
2019-05-21T00:32:20.205Z,37.83
2019-05-21T00:35:25.443Z,36.40
2019-05-21T00:38:28.964Z,38.90
2019-05-21T00:41:32.135Z,46.23
2019-05-21T00:43:59.647Z,40.40
2019-05-21T00:46:27.076Z,42.90
2019-05-21T00:48:54.612Z,43.87
2019-05-21T00:51:22.136Z,47.80
2019-05-21T00:53:49.684Z,44.73
2019-05-21T00:56:18.228Z,45.23
2019-05-21T00:58:45.750Z,48.03
2019-05-21T01:01:13.290Z,41.73
2019-05-21T01:03:43.317Z,44.20
2019-05-21T01:06:10.146Z,47.83
2019-05-21T01:08:37.676Z,44.97
2019-05-21T01:11:05.296Z,48.00
2019-05-21T01:13:32.835Z,47.67
2019-05-21T01:16:00.386Z,50.07
2019-05-21T01:18:27.934Z,47.33
2019-05-21T01:20:55.461Z,45.83
2019-05-21T01:23:23.034Z,48.77
2019-05-21T01:25:50.566Z,53.43
2019-05-21T01:28:18.097Z,46.30
2019-05-21T01:30:45.808Z,49.17
2019-05-21T01:33:13.291Z,46.73
2019-05-21T01:35:40.783Z,50.23
2019-05-21T01:38:08.317Z,52.17
2019-05-21T01:40:35.726Z,49.13
2019-05-21T01:43:03.590Z,45.47
2019-05-21T01:45:31.179Z,47.33
2019-05-21T01:47:58.752Z,46.90
2019-05-21T01:50:26.304Z,56.17
2019-05-21T01:52:53.832Z,47.60
2019-05-21T01:55:21.343Z,49.10
2019-05-21T01:57:49.221Z,44.10
2019-05-21T02:00:16.853Z,48.90
2019-05-21T02:02:50.181Z,44.80
2019-05-21T02:05:32.020Z,46.93
2019-05-21T02:07:47.042Z,47.47
2019-05-21T02:10:14.787Z,41.70
2019-05-21T02:12:42.306Z,45.10
2019-05-21T02:15:09.861Z,44.97
2019-05-21T02:17:37.375Z,45.43
2019-05-21T02:20:05.193Z,44.17
2019-05-21T02:22:32.714Z,49.90
2019-05-21T02:25:00.188Z,45.60
2019-05-21T02:27:27.731Z,48.37
2019-05-21T02:29:55.158Z,51.73
2019-05-21T02:32:22.679Z,51.53
2019-05-21T02:34:50.219Z,49.57
2019-05-21T02:37:17.745Z,47.50
2019-05-21T02:39:45.265Z,53.17
2019-05-21T02:42:12.665Z,47.63
2019-05-21T02:44:40.204Z,53.43
2019-05-21T02:47:08.764Z,50.33
2019-05-21T02:49:36.324Z,52.37
2019-05-21T02:52:03.924Z,58.03
2019-05-21T02:54:41.163Z,56.20
2019-05-21T02:57:00.781Z,57.60
2019-05-21T02:59:28.297Z,58.00
2019-05-21T03:02:07.702Z,59.63
2019-05-21T03:04:35.259Z,52.10
2019-05-21T03:07:16.906Z,63.53
2019-05-21T03:09:45.183Z,56.63
2019-05-21T03:12:12.864Z,57.67
2019-05-21T03:14:40.407Z,57.20
2019-05-21T03:17:07.814Z,62.27
2019-05-21T03:19:35.358Z,57.07
2019-05-21T03:22:02.880Z,55.63
2019-05-21T03:24:30.427Z,45.53
2019-05-21T03:26:58.922Z,51.90
2019-05-21T03:29:26.468Z,51.67
2019-05-21T03:31:54.005Z,47.73
2019-05-21T03:34:21.558Z,59.03
2019-05-21T03:36:49.073Z,58.23
2019-05-21T03:39:19.257Z,52.43
2019-05-21T03:41:45.854Z,52.43
2019-05-21T03:44:13.443Z,51.47
2019-05-21T03:46:40.958Z,50.60
2019-05-21T03:49:08.486Z,46.00
2019-05-21T03:51:36.247Z,52.03
2019-05-21T03:54:03.845Z,44.50
2019-05-21T03:56:31.399Z,40.20
2019-05-21T03:58:58.932Z,39.70
2019-05-21T04:01:26.452Z,38.47
2019-05-21T04:03:53.972Z,31.47
2019-05-21T04:06:21.493Z,36.80
2019-05-21T04:08:49.022Z,33.37
2019-05-21T04:11:16.483Z,37.80
2019-05-21T04:13:44.023Z,33.20
2019-05-21T04:16:37.085Z,31.00
2019-05-21T04:19:08.290Z,29.97
2019-05-21T04:21:35.751Z,33.27
2019-05-21T04:24:03.269Z,35.07
2019-05-21T04:26:30.987Z,31.37
2019-05-21T04:28:58.532Z,27.70
2019-05-21T04:31:26.050Z,30.47
2019-05-21T04:33:53.558Z,28.27
2019-05-21T04:36:21.219Z,29.90
2019-05-21T04:38:48.723Z,28.73
2019-05-21T04:41:16.254Z,27.40
2019-05-21T04:43:43.775Z,28.00
2019-05-21T04:46:11.420Z,27.27
2019-05-21T04:48:38.943Z,25.27
2019-05-21T04:51:06.484Z,26.43
2019-05-21T04:53:33.983Z,25.13
2019-05-21T04:56:01.459Z,27.83
2019-05-21T04:58:29.012Z,29.30
2019-05-21T05:00:56.540Z,25.70
2019-05-21T05:03:24.100Z,28.27
2019-05-21T05:05:51.761Z,24.83
2019-05-21T05:08:19.299Z,29.03
2019-05-21T05:10:49.276Z,25.27
2019-05-21T05:13:16.157Z,25.00
2019-05-21T05:15:43.833Z,25.73
2019-05-21T05:18:11.388Z,23.40
2019-05-21T05:20:38.950Z,27.73
2019-05-21T05:23:06.404Z,20.13
2019-05-21T05:25:34.004Z,21.57
2019-05-21T05:28:01.550Z,23.27
2019-05-21T05:30:29.103Z,24.43
2019-05-21T05:33:12.918Z,21.37
2019-05-21T05:35:40.763Z,26.00
2019-05-21T05:38:08.234Z,23.63
2019-05-21T05:40:35.737Z,22.87
2019-05-21T05:43:04.095Z,18.80
2019-05-21T05:45:34.075Z,21.47
2019-05-21T05:48:01.974Z,22.37
2019-05-21T05:50:33.083Z,23.07
2019-05-21T05:53:00.603Z,24.07
2019-05-21T05:55:28.098Z,24.40
2019-05-21T05:57:56.541Z,23.67
2019-05-21T06:00:24.581Z,27.37
2019-05-21T06:02:52.247Z,21.93
2019-05-21T06:05:19.847Z,19.70
2019-05-21T06:07:59.456Z,21.43
2019-05-21T06:10:17.734Z,19.93
2019-05-21T06:12:45.168Z,19.47
2019-05-21T06:15:12.783Z,19.53
2019-05-21T06:17:40.331Z,20.10
2019-05-21T06:20:08.058Z,18.70
2019-05-21T06:22:35.636Z,20.03
2019-05-21T06:25:04.721Z,20.03
2019-05-21T06:27:32.240Z,17.97
2019-05-21T06:29:59.828Z,18.60
2019-05-21T06:32:27.390Z,19.13
2019-05-21T06:34:54.956Z,18.90
2019-05-21T06:37:22.493Z,17.77
2019-05-21T06:39:50.044Z,14.40
2019-05-21T06:42:17.435Z,15.63
2019-05-21T06:44:44.962Z,19.43
2019-05-21T06:47:15.609Z,19.87
2019-05-21T06:49:43.164Z,16.43
2019-05-21T06:52:10.779Z,17.20
2019-05-21T06:54:38.211Z,20.37
2019-05-21T06:57:05.869Z,19.77
2019-05-21T06:59:33.411Z,20.10
2019-05-21T07:02:02.637Z,17.40
2019-05-21T07:04:30.184Z,17.37
2019-05-21T07:06:58.718Z,17.63
2019-05-21T07:09:26.426Z,20.40
2019-05-21T07:11:53.890Z,21.83
2019-05-21T07:14:21.454Z,21.50
2019-05-21T07:16:49.987Z,19.97
2019-05-21T07:19:19.876Z,21.70
2019-05-21T07:21:47.503Z,21.70
2019-05-21T07:24:15.041Z,17.33
2019-05-21T07:26:42.626Z,19.50
2019-05-21T07:29:10.308Z,20.93
2019-05-21T07:31:37.822Z,19.97
2019-05-21T07:34:05.381Z,21.97
2019-05-21T07:36:34.343Z,18.80
2019-05-21T07:39:01.815Z,24.30
2019-05-21T07:41:29.366Z,23.27
2019-05-21T07:43:56.883Z,24.07
2019-05-21T07:46:24.319Z,26.40
2019-05-21T07:48:51.765Z,19.80
2019-05-21T07:51:19.322Z,21.07
2019-05-21T07:53:46.866Z,21.00
2019-05-21T07:56:15.254Z,17.57
2019-05-21T07:58:42.836Z,16.03
2019-05-21T08:01:10.387Z,18.57
2019-05-21T08:03:38.023Z,18.60
2019-05-21T08:06:05.597Z,16.17
2019-05-21T08:08:33.125Z,18.93
2019-05-21T08:11:00.557Z,16.83
2019-05-21T08:13:28.111Z,19.10
2019-05-21T08:15:55.718Z,18.53
2019-05-21T08:18:23.227Z,15.37
2019-05-21T08:20:50.711Z,16.43
2019-05-21T08:23:18.260Z,14.23
2019-05-21T08:25:45.807Z,14.47
2019-05-21T08:28:13.404Z,16.90
2019-05-21T08:30:40.942Z,12.23
2019-05-21T08:33:08.470Z,12.77
2019-05-21T08:35:35.953Z,15.30
2019-05-21T08:38:06.639Z,13.67
2019-05-21T08:40:32.835Z,15.07
2019-05-21T08:43:00.334Z,16.07
2019-05-21T08:45:28.083Z,14.53
2019-05-21T08:47:55.590Z,11.70
2019-05-21T08:50:23.140Z,13.70
2019-05-21T08:52:50.595Z,17.80
2019-05-21T08:55:18.279Z,15.27
2019-05-21T08:57:45.791Z,13.13
2019-05-21T09:00:15.287Z,12.23
2019-05-21T09:02:42.878Z,15.27
2019-05-21T09:05:10.666Z,13.30
2019-05-21T09:07:38.169Z,11.93
2019-05-21T09:10:06.037Z,15.30
2019-05-21T09:12:33.679Z,14.63
2019-05-21T09:15:01.271Z,14.30
2019-05-21T09:17:28.802Z,15.53
2019-05-21T09:19:56.354Z,11.07
2019-05-21T09:22:24.109Z,15.20
2019-05-21T09:24:51.679Z,11.83
2019-05-21T09:27:19.239Z,14.20
2019-05-21T09:29:46.665Z,14.27
2019-05-21T09:32:14.236Z,12.17
2019-05-21T09:34:48.594Z,12.27
2019-05-21T09:37:19.906Z,13.43
2019-05-21T09:39:41.794Z,14.27
2019-05-21T09:42:09.344Z,13.63
2019-05-21T09:44:36.915Z,11.67
2019-05-21T09:47:04.479Z,12.27
2019-05-21T09:49:32.027Z,16.57
2019-05-21T09:51:59.522Z,12.20
2019-05-21T09:54:27.085Z,11.77
2019-05-21T09:56:54.606Z,13.83
2019-05-21T09:59:44.444Z,13.87
2019-05-21T10:02:15.269Z,13.33
2019-05-21T10:04:42.927Z,13.90
2019-05-21T10:07:10.556Z,15.57
2019-05-21T10:09:38.144Z,11.73
2019-05-21T10:12:05.888Z,13.67
2019-05-21T10:14:34.330Z,14.80
2019-05-21T10:17:04.156Z,12.30
2019-05-21T10:19:31.722Z,11.63
2019-05-21T10:21:59.279Z,11.97
2019-05-21T10:24:26.848Z,11.00
2019-05-21T10:26:55.393Z,12.67
2019-05-21T10:29:22.953Z,11.27
2019-05-21T10:31:50.516Z,9.57
2019-05-21T10:34:18.006Z,10.00
2019-05-21T10:36:45.612Z,9.57
2019-05-21T10:39:13.145Z,9.73
2019-05-21T10:41:40.679Z,13.90
2019-05-21T10:44:08.322Z,9.33
2019-05-21T10:46:37.988Z,11.70
2019-05-21T10:49:05.558Z,10.03
2019-05-21T10:51:33.121Z,10.60
2019-05-21T10:54:00.808Z,8.53
2019-05-21T10:56:28.364Z,9.10
2019-05-21T10:58:55.906Z,13.83
2019-05-21T11:01:29.984Z,9.60
2019-05-21T11:04:32.185Z,10.03
2019-05-21T11:06:59.863Z,9.10
2019-05-21T11:09:27.547Z,8.50
2019-05-21T11:11:55.238Z,9.33
2019-05-21T11:14:22.686Z,9.97
2019-05-21T11:16:51.231Z,9.53
2019-05-21T11:19:18.745Z,9.67
2019-05-21T11:21:46.258Z,10.50
2019-05-21T11:24:13.763Z,9.03
2019-05-21T11:26:41.412Z,10.00
2019-05-21T11:29:08.956Z,8.63
2019-05-21T11:31:36.882Z,8.30
2019-05-21T11:34:04.548Z,10.67
2019-05-21T11:36:32.095Z,10.70
2019-05-21T11:38:59.625Z,10.87
2019-05-21T11:41:27.185Z,9.70
2019-05-21T11:43:54.711Z,9.27
2019-05-21T11:46:22.281Z,10.27
2019-05-21T11:48:49.776Z,12.87
2019-05-21T11:51:17.604Z,8.53
2019-05-21T11:53:45.110Z,9.33
2019-05-21T11:56:12.648Z,9.53
2019-05-21T11:58:40.187Z,8.70
2019-05-21T12:01:07.754Z,8.43
2019-05-21T12:03:35.283Z,11.80
2019-05-21T12:06:02.930Z,10.57
2019-05-21T12:08:30.437Z,10.97
2019-05-21T12:11:00.478Z,8.87
2019-05-21T12:13:28.004Z,9.70
2019-05-21T12:15:55.556Z,8.13
2019-05-21T12:18:23.105Z,8.70
2019-05-21T12:20:50.669Z,9.00
2019-05-21T12:23:18.174Z,9.47
2019-05-21T12:25:45.643Z,9.47
2019-05-21T12:28:13.102Z,6.77
2019-05-21T12:30:40.629Z,10.63
2019-05-21T12:33:08.143Z,7.23
2019-05-21T12:35:35.700Z,9.63
2019-05-21T12:38:03.313Z,12.87
2019-05-21T12:40:30.852Z,8.17
2019-05-21T12:42:58.436Z,9.57
2019-05-21T12:45:25.983Z,8.80
2019-05-21T12:47:53.535Z,8.87
2019-05-21T12:50:21.478Z,7.23
2019-05-21T12:52:49.010Z,7.77
2019-05-21T12:55:16.547Z,6.87
2019-05-21T12:57:44.078Z,7.90
2019-05-21T13:00:13.042Z,7.77
2019-05-21T13:02:40.544Z,8.50
2019-05-21T13:05:11.424Z,8.33
2019-05-21T13:07:37.760Z,10.63
2019-05-21T13:10:05.359Z,8.97
2019-05-21T13:12:32.914Z,9.07
2019-05-21T13:15:00.442Z,7.87
2019-05-21T13:17:28.978Z,5.53
2019-05-21T13:19:56.609Z,7.50
2019-05-21T13:22:24.171Z,7.83
2019-05-21T13:24:51.759Z,7.70
2019-05-21T13:27:19.245Z,7.87
2019-05-21T13:29:46.874Z,8.13
2019-05-21T13:32:14.343Z,7.37
2019-05-21T13:34:41.853Z,7.27
2019-05-21T13:37:10.424Z,7.63
2019-05-21T13:39:49.506Z,9.97
2019-05-21T13:42:07.277Z,7.10
2019-05-21T13:44:34.792Z,7.53
2019-05-21T13:47:02.506Z,8.47
2019-05-21T13:49:30.036Z,6.30
2019-05-21T13:51:57.611Z,6.00
2019-05-21T13:54:25.035Z,5.23
2019-05-21T13:56:52.585Z,9.53
2019-05-21T13:59:20.258Z,8.53
2019-05-21T14:01:48.955Z,7.10
2019-05-21T14:04:17.320Z,6.43
2019-05-21T14:06:44.996Z,5.27
2019-05-21T14:09:12.924Z,5.73
2019-05-21T14:11:40.589Z,7.20
2019-05-21T14:14:08.205Z,6.40
2019-05-21T14:16:35.717Z,6.23
2019-05-21T14:19:03.271Z,7.33
2019-05-21T14:21:30.790Z,10.30
2019-05-21T14:23:59.452Z,6.07
2019-05-21T14:26:26.999Z,7.70
2019-05-21T14:28:54.533Z,5.87
2019-05-21T14:31:21.948Z,11.23
2019-05-21T14:33:49.414Z,7.20
2019-05-21T14:36:16.980Z,7.97
2019-05-21T14:38:44.517Z,7.07
2019-05-21T14:41:13.334Z,9.67
2019-05-21T14:43:40.939Z,8.43
2019-05-21T14:46:09.574Z,7.30
2019-05-21T14:48:37.242Z,7.33
2019-05-21T14:51:04.989Z,5.80
2019-05-21T14:53:32.525Z,12.10
2019-05-21T14:56:00.115Z,7.33
2019-05-21T14:58:27.742Z,5.83
2019-05-21T15:00:55.334Z,8.13
2019-05-21T15:03:25.434Z,14.87
2019-05-21T15:05:53.260Z,13.57
2019-05-21T15:08:20.845Z,9.80
2019-05-21T15:10:49.587Z,7.37
2019-05-21T15:13:17.265Z,5.77
2019-05-21T15:15:44.839Z,6.83
2019-05-21T15:18:19.579Z,5.70
2019-05-21T15:20:59.349Z,12.03
2019-05-21T15:23:27.026Z,7.80
2019-05-21T15:25:54.764Z,5.20
2019-05-21T15:28:22.393Z,15.00
2019-05-21T15:30:49.987Z,8.03
2019-05-21T15:33:17.582Z,8.27
2019-05-21T15:35:45.150Z,6.87
2019-05-21T15:38:12.678Z,6.97
2019-05-21T15:40:40.247Z,8.00
2019-05-21T15:43:07.767Z,6.03
2019-05-21T15:45:35.581Z,5.80
2019-05-21T15:48:09.256Z,6.60
2019-05-21T15:50:37.803Z,4.83
2019-05-21T15:53:05.354Z,7.17
2019-05-21T15:55:32.935Z,7.40
2019-05-21T15:58:01.913Z,7.00
2019-05-21T16:00:29.646Z,6.40
2019-05-21T16:02:57.181Z,6.73
2019-05-21T16:05:24.626Z,3.80
2019-05-21T16:07:52.110Z,4.87
2019-05-21T16:10:19.667Z,4.00
2019-05-21T16:12:47.197Z,4.57
2019-05-21T16:15:15.872Z,4.83
2019-05-21T16:17:43.391Z,4.60
2019-05-21T16:20:11.135Z,5.33
2019-05-21T16:22:38.729Z,5.67
2019-05-21T16:25:06.623Z,7.10
2019-05-21T16:27:34.169Z,6.90
2019-05-21T16:30:03.481Z,4.43
2019-05-21T16:32:31.023Z,4.07
2019-05-21T16:35:01.024Z,5.13
2019-05-21T16:37:28.488Z,5.23
2019-05-21T16:39:56.047Z,4.03
2019-05-21T16:42:23.975Z,3.73
2019-05-21T16:44:51.589Z,5.90
2019-05-21T16:47:19.203Z,6.60
2019-05-21T16:49:46.993Z,5.87
2019-05-21T16:52:14.598Z,6.33
2019-05-21T16:54:42.174Z,4.37
2019-05-21T16:57:09.724Z,3.97
2019-05-21T16:59:40.063Z,6.23
2019-05-21T17:02:07.910Z,4.43
2019-05-21T17:04:35.450Z,4.70
2019-05-21T17:07:08.252Z,6.83
2019-05-21T17:09:35.893Z,4.23
2019-05-21T17:12:03.553Z,4.17
2019-05-21T17:14:31.251Z,7.87
2019-05-21T17:16:58.813Z,5.67
2019-05-21T17:19:26.331Z,5.63
2019-05-21T17:21:56.826Z,3.50
2019-05-21T17:24:24.546Z,4.93
2019-05-21T17:27:20.207Z,5.67
2019-05-21T17:29:48.071Z,5.23
2019-05-21T17:32:15.926Z,5.73
2019-05-21T17:34:43.459Z,4.40
2019-05-21T17:37:12.029Z,5.30
2019-05-21T17:39:39.593Z,5.47
2019-05-21T17:42:15.172Z,6.77
2019-05-21T17:44:36.952Z,5.67
2019-05-21T17:47:04.590Z,6.00
2019-05-21T17:49:32.247Z,7.47
2019-05-21T17:52:00.225Z,8.03
2019-05-21T17:54:27.833Z,6.47
2019-05-21T17:56:55.430Z,7.50
2019-05-21T17:59:23.034Z,6.93
2019-05-21T18:01:52.047Z,8.10
2019-05-21T18:04:19.647Z,10.57
2019-05-21T18:06:47.197Z,11.13
2019-05-21T18:09:17.011Z,8.83
2019-05-21T18:11:45.754Z,8.90
2019-05-21T18:14:13.565Z,10.30
2019-05-21T18:16:41.430Z,9.10
2019-05-21T18:19:09.014Z,12.73
2019-05-21T18:21:36.857Z,11.23
2019-05-21T18:24:04.542Z,10.43
2019-05-21T18:26:32.251Z,10.33
2019-05-21T18:28:59.802Z,10.33
2019-05-21T18:31:27.944Z,11.50
2019-05-21T18:34:15.038Z,10.73
2019-05-21T18:36:43.018Z,12.20
2019-05-21T18:39:12.167Z,12.70
2019-05-21T18:41:40.258Z,11.97
2019-05-21T18:44:07.880Z,11.90
2019-05-21T18:46:35.612Z,12.83
2019-05-21T18:49:03.260Z,15.27
2019-05-21T18:51:31.002Z,13.50
2019-05-21T18:53:58.629Z,13.57
2019-05-21T18:56:26.317Z,12.43
2019-05-21T18:58:54.038Z,14.13
2019-05-21T19:01:21.774Z,13.43
2019-05-21T19:03:49.345Z,13.80
2019-05-21T19:06:16.947Z,11.63
2019-05-21T19:08:44.535Z,14.73
2019-05-21T19:11:12.330Z,13.70
2019-05-21T19:13:39.920Z,13.20
2019-05-21T19:16:07.535Z,12.13
2019-05-21T19:18:38.026Z,12.27
2019-05-21T19:21:05.700Z,11.63
2019-05-21T19:23:33.251Z,12.23
2019-05-21T19:26:03.899Z,14.33
2019-05-21T19:28:36.033Z,12.20
2019-05-21T19:31:03.707Z,12.10
2019-05-21T19:33:33.278Z,12.27
2019-05-21T19:36:02.006Z,11.53
2019-05-21T19:38:30.378Z,12.97
2019-05-21T19:40:58.148Z,16.53
2019-05-21T19:43:25.670Z,11.67
2019-05-21T19:45:53.234Z,17.10
2019-05-21T19:48:20.806Z,14.30
2019-05-21T19:50:51.238Z,13.27
2019-05-21T19:53:18.871Z,15.30
2019-05-21T19:55:46.483Z,14.33
2019-05-21T19:58:14.065Z,15.20
2019-05-21T20:00:47.638Z,12.80
2019-05-21T20:03:15.350Z,14.47
2019-05-21T20:05:43.645Z,14.30
2019-05-21T20:08:11.198Z,15.67
2019-05-21T20:10:40.186Z,13.13
2019-05-21T20:13:07.813Z,13.90
2019-05-21T20:15:35.451Z,13.60
2019-05-21T20:18:07.482Z,15.10
2019-05-21T20:20:33.548Z,16.37
2019-05-21T20:23:02.193Z,13.33
2019-05-21T20:25:32.237Z,15.67
2019-05-21T20:28:00.857Z,14.37
2019-05-21T20:30:30.903Z,14.97
2019-05-21T20:32:58.488Z,15.67
2019-05-21T20:35:29.103Z,16.77
2019-05-21T20:37:57.045Z,13.63
2019-05-21T20:40:25.027Z,15.33
2019-05-21T20:42:53.909Z,15.17
2019-05-21T20:45:21.793Z,14.80
2019-05-21T20:47:50.990Z,15.60
2019-05-21T20:50:22.560Z,14.97
2019-05-21T20:52:50.272Z,14.83
2019-05-21T20:55:18.426Z,14.90
2019-05-21T20:57:46.250Z,15.90
2019-05-21T21:00:17.166Z,16.83
2019-05-21T21:02:45.147Z,15.57
2019-05-21T21:05:13.089Z,18.93
2019-05-21T21:07:41.189Z,15.37
2019-05-21T21:10:10.182Z,16.93
2019-05-21T21:12:39.885Z,15.70
2019-05-21T21:15:09.041Z,16.40
2019-05-21T21:17:36.772Z,16.43
2019-05-21T21:20:04.503Z,18.75
2019-05-21T21:22:32.070Z,21.13
2019-05-21T21:24:59.772Z,18.23
2019-05-21T21:27:27.383Z,16.67
2019-05-21T21:29:54.940Z,16.07
2019-05-21T21:32:22.503Z,16.87
2019-05-21T21:34:50.129Z,19.57
2019-05-21T21:37:17.679Z,17.13
2019-05-21T21:39:45.370Z,18.83
2019-05-21T21:42:13.467Z,21.10
2019-05-21T21:44:41.010Z,18.43
2019-05-21T21:47:08.718Z,21.30
2019-05-21T21:49:36.866Z,20.37
2019-05-21T21:52:06.527Z,18.33
2019-05-21T21:54:33.993Z,20.40
2019-05-21T21:57:01.543Z,22.70
2019-05-21T21:59:29.377Z,18.53
2019-05-21T22:02:04.866Z,17.80
2019-05-21T22:04:35.043Z,19.30
2019-05-21T22:07:03.082Z,19.50
2019-05-21T22:09:35.237Z,19.17
2019-05-21T22:12:08.285Z,19.80
2019-05-21T22:14:49.778Z,18.70
2019-05-21T22:17:08.537Z,19.23
2019-05-21T22:19:37.054Z,19.00
2019-05-21T22:22:07.539Z,21.03
2019-05-21T22:24:35.468Z,20.17
2019-05-21T22:27:03.273Z,17.10
2019-05-21T22:29:31.623Z,17.37
2019-05-21T22:31:59.153Z,18.60
2019-05-21T22:34:27.317Z,19.43
2019-05-21T22:36:54.961Z,18.83
2019-05-21T22:39:27.569Z,18.43
2019-05-21T22:41:55.227Z,18.67
2019-05-21T22:44:22.756Z,19.77
2019-05-21T22:46:50.707Z,18.70
2019-05-21T22:49:18.242Z,19.03
2019-05-21T22:51:45.998Z,19.90
2019-05-21T22:54:13.421Z,18.97
2019-05-21T22:56:41.120Z,20.17
2019-05-21T22:59:08.880Z,19.90
2019-05-21T23:01:37.258Z,19.87
2019-05-21T23:04:05.210Z,20.60
2019-05-21T23:06:33.014Z,19.77
2019-05-21T23:09:00.576Z,20.77
2019-05-21T23:11:28.313Z,21.10
2019-05-21T23:13:58.162Z,20.97
2019-05-21T23:16:25.833Z,20.57
2019-05-21T23:18:53.473Z,19.93
2019-05-21T23:21:22.239Z,20.53
2019-05-21T23:23:50.369Z,21.27
2019-05-21T23:26:19.536Z,18.87
2019-05-21T23:28:47.355Z,19.60
2019-05-21T23:31:15.451Z,18.10
2019-05-21T23:33:43.380Z,22.80
2019-05-21T23:36:10.953Z,19.27
2019-05-21T23:38:38.562Z,19.97
2019-05-21T23:41:08.144Z,19.17
2019-05-21T23:43:36.008Z,17.17
2019-05-21T23:46:04.984Z,18.97
2019-05-21T23:48:33.152Z,20.87
2019-05-21T23:51:01.048Z,18.70
2019-05-21T23:53:28.582Z,18.90
2019-05-21T23:55:56.113Z,20.13
2019-05-21T23:58:23.650Z,21.57
